Time;durP1;ratioP1;P1;durP2;ratioP2;P2;SDS_P1;SDS_P2;PMS_P1;PMS_P2;Temp;Humidity;BMP_temperature;BMP_pressure;BME280_temperature;BME280_humidity;BME280_pressure;Samples;Min_cycle;Max_cycle;Signal;HPM_P1;HPM_P2
2023/08/19 00:02:15;;;;;;;25.80;9.87;;;;;;;;;;5093923;28;20019;-76
2023/08/19 00:04:40;;;;;;;32.27;10.50;;;;;;;;;;5093889;28;20016;-76
2023/08/19 00:07:05;;;;;;;21.97;9.93;;;;;;;;;;5093789;28;20354;-76
2023/08/19 00:09:34;;;;;;;19.93;8.70;;;;;;;;;;5093861;28;20280;-76
2023/08/19 00:12:00;;;;;;;24.20;9.75;;;;;;;;;;5093737;28;20012;-76
2023/08/19 00:14:25;;;;;;;16.50;8.40;;;;;;;;;;5075700;28;20012;-76
2023/08/19 00:16:50;;;;;;;18.97;8.00;;;;;;;;;;5093744;28;20244;-76
2023/08/19 00:19:15;;;;;;;32.47;8.73;;;;;;;;;;5093782;28;20027;-77
2023/08/19 00:21:40;;;;;;;20.90;8.53;;;;;;;;;;5093123;28;20505;-77
2023/08/19 00:24:06;;;;;;;21.13;7.77;;;;;;;;;;5093576;28;20031;-77
2023/08/19 00:26:31;;;;;;;18.08;8.50;;;;;;;;;;5093732;28;20261;-77
2023/08/19 00:28:56;;;;;;;16.17;8.60;;;;;;;;;;5093565;28;20077;-77
2023/08/19 00:31:23;;;;;;;14.53;8.40;;;;;;;;;;5093462;28;20245;-77
2023/08/19 00:33:48;;;;;;;14.73;8.05;;;;;;;;;;5093525;28;20733;-76
2023/08/19 00:36:13;;;;;;;19.07;8.23;;;;;;;;;;5093420;28;20023;-76
2023/08/19 00:38:38;;;;;;;16.20;8.07;;;;;;;;;;5093258;28;20063;-77
2023/08/19 00:41:04;;;;;;;20.43;8.97;;;;;;;;;;5093397;28;20075;-76
2023/08/19 00:43:30;;;;;;;16.40;8.23;;;;;;;;;;5093456;28;20249;-77
2023/08/19 00:45:56;;;;;;;15.55;7.32;;;;;;;;;;5093030;28;20052;-76
2023/08/19 00:48:22;;;;;;;16.10;7.60;;;;;;;;;;5093304;28;20026;-75
2023/08/19 00:50:49;;;;;;;18.05;8.23;;;;;;;;;;5093313;28;20253;-77
2023/08/19 00:53:15;;;;;;;27.52;8.00;;;;;;;;;;5093206;28;20385;-77
2023/08/19 00:55:44;;;;;;;14.15;7.30;;;;;;;;;;5093231;28;20016;-67
2023/08/19 00:58:10;;;;;;;19.58;7.63;;;;;;;;;;5093206;28;20493;-77
2023/08/19 01:00:35;;;;;;;15.75;6.93;;;;;;;;;;5093174;28;20023;-77
2023/08/19 01:03:01;;;;;;;11.20;6.35;;;;;;;;;;5093180;28;20487;-77
2023/08/19 01:05:48;;;;;;;16.40;7.28;;;;;;;;;;5093031;28;20051;-77
2023/08/19 01:08:17;;;;;;;11.35;6.68;;;;;;;;;;5078178;28;20133;-77
2023/08/19 01:10:43;;;;;;;12.35;8.30;;;;;;;;;;5093071;28;20512;-77
2023/08/19 01:13:09;;;;;;;21.30;6.97;;;;;;;;;;5093096;28;20017;-77
2023/08/19 01:15:35;;;;;;;16.67;7.30;;;;;;;;;;5093085;28;20105;-77
2023/08/19 01:18:02;;;;;;;11.80;6.78;;;;;;;;;;5093262;28;20702;-77
2023/08/19 01:20:31;;;;;;;16.17;8.07;;;;;;;;;;5092851;28;20056;-77
2023/08/19 01:22:59;;;;;;;15.57;8.02;;;;;;;;;;5092996;28;20035;-77
2023/08/19 01:25:25;;;;;;;21.20;9.00;;;;;;;;;;5092881;28;20024;-77
2023/08/19 01:27:50;;;;;;;15.63;8.57;;;;;;;;;;5092933;28;20020;-77
2023/08/19 01:30:15;;;;;;;23.43;8.10;;;;;;;;;;5092896;28;20019;-77
2023/08/19 01:32:43;;;;;;;15.00;7.90;;;;;;;;;;5099702;28;20024;-77
2023/08/19 01:35:09;;;;;;;10.88;7.03;;;;;;;;;;5116231;28;20732;-77
2023/08/19 01:37:39;;;;;;;13.98;7.50;;;;;;;;;;5117036;28;20016;-77
2023/08/19 01:40:08;;;;;;;13.25;6.13;;;;;;;;;;5117040;28;20016;-77
2023/08/19 01:42:34;;;;;;;14.57;7.18;;;;;;;;;;5117052;28;20465;-77
2023/08/19 01:45:00;;;;;;;13.25;7.30;;;;;;;;;;5116714;28;20063;-77
2023/08/19 01:47:25;;;;;;;14.88;7.03;;;;;;;;;;5116851;28;20464;-77
2023/08/19 01:49:50;;;;;;;15.13;8.90;;;;;;;;;;5098563;28;20024;-77
2023/08/19 01:52:17;;;;;;;18.10;7.63;;;;;;;;;;5116846;28;20012;-77
2023/08/19 01:54:42;;;;;;;14.55;7.43;;;;;;;;;;5116778;28;20793;-77
2023/08/19 01:57:07;;;;;;;13.27;6.93;;;;;;;;;;5116738;28;20137;-77
2023/08/19 01:59:33;;;;;;;12.90;5.20;;;;;;;;;;5116686;28;20020;-77
2023/08/19 02:01:58;;;;;;;10.68;6.80;;;;;;;;;;5116694;28;20305;-77
2023/08/19 02:04:24;;;;;;;16.58;7.65;;;;;;;;;;5098249;28;20035;-76
2023/08/19 02:06:49;;;;;;;11.45;6.57;;;;;;;;;;5116626;28;20026;-77
2023/08/19 02:09:14;;;;;;;12.15;7.10;;;;;;;;;;5100159;28;20022;-77
2023/08/19 02:11:39;;;;;;;9.70;5.47;;;;;;;;;;5096066;28;20023;-77
2023/08/19 02:14:04;;;;;;;10.90;6.20;;;;;;;;;;5096037;28;20240;-77
2023/08/19 02:16:30;;;;;;;9.07;6.40;;;;;;;;;;5095926;28;20016;-77
2023/08/19 02:18:58;;;;;;;17.60;7.17;;;;;;;;;;5096004;28;20020;-77
2023/08/19 02:21:24;;;;;;;15.85;6.22;;;;;;;;;;5095837;28;20026;-76
2023/08/19 02:23:49;;;;;;;14.73;7.03;;;;;;;;;;5095906;28;20027;-77
2023/08/19 02:26:14;;;;;;;13.75;6.65;;;;;;;;;;5095688;28;20023;-77
2023/08/19 02:28:39;;;;;;;10.40;6.53;;;;;;;;;;5095723;28;20046;-77
2023/08/19 02:31:05;;;;;;;12.40;5.93;;;;;;;;;;5095661;28;20261;-77
2023/08/19 02:33:30;;;;;;;9.60;6.10;;;;;;;;;;5095689;28;20023;-77
2023/08/19 02:35:55;;;;;;;10.80;6.70;;;;;;;;;;5095601;28;20488;-76
2023/08/19 02:38:20;;;;;;;14.30;6.60;;;;;;;;;;5095534;28;20744;-77
2023/08/19 02:40:49;;;;;;;16.90;6.67;;;;;;;;;;5095488;28;20016;-77
2023/08/19 02:43:14;;;;;;;8.73;5.60;;;;;;;;;;5095666;28;20016;-77
2023/08/19 02:45:40;;;;;;;14.00;6.15;;;;;;;;;;5076542;28;20513;-77
2023/08/19 02:48:05;;;;;;;7.80;5.32;;;;;;;;;;5095327;28;20070;-77
2023/08/19 02:50:31;;;;;;;11.25;7.05;;;;;;;;;;5077212;28;20016;-76
2023/08/19 02:52:56;;;;;;;10.90;6.37;;;;;;;;;;5095290;28;20477;-76
2023/08/19 02:55:21;;;;;;;10.53;5.73;;;;;;;;;;5095210;28;20042;-77
2023/08/19 02:57:46;;;;;;;9.50;5.47;;;;;;;;;;5076984;28;20031;-77
2023/08/19 03:00:11;;;;;;;10.07;5.87;;;;;;;;;;5095080;28;20055;-77
2023/08/19 03:02:37;;;;;;;10.45;6.00;;;;;;;;;;5095039;28;20103;-77
2023/08/19 03:05:04;;;;;;;11.03;6.00;;;;;;;;;;5094946;28;20028;-77
2023/08/19 03:07:29;;;;;;;14.68;7.72;;;;;;;;;;5094991;28;20012;-77
2023/08/19 03:09:54;;;;;;;10.90;7.07;;;;;;;;;;5094896;28;20490;-75
2023/08/19 03:12:19;;;;;;;12.70;6.00;;;;;;;;;;5094851;28;20023;-77
2023/08/19 03:14:44;;;;;;;14.73;5.83;;;;;;;;;;5076644;28;20016;-76
2023/08/19 03:17:15;;;;;;;15.17;6.20;;;;;;;;;;5094969;28;20024;-66
2023/08/19 03:19:40;;;;;;;11.10;5.93;;;;;;;;;;5095007;28;20069;-67
2023/08/19 03:22:05;;;;;;;16.00;6.57;;;;;;;;;;5094979;28;20416;-66
2023/08/19 03:24:31;;;;;;;12.00;7.30;;;;;;;;;;5094546;28;20020;-67
2023/08/19 03:26:56;;;;;;;24.20;7.88;;;;;;;;;;5094480;28;20020;-66
2023/08/19 03:29:23;;;;;;;11.60;7.22;;;;;;;;;;5094519;28;20096;-66
2023/08/19 03:31:48;;;;;;;18.48;7.45;;;;;;;;;;5095045;28;20016;-66
2023/08/19 03:34:13;;;;;;;10.70;6.63;;;;;;;;;;5094966;28;20369;-67
2023/08/19 03:36:38;;;;;;;17.87;7.20;;;;;;;;;;5094727;28;20076;-66
2023/08/19 03:39:04;;;;;;;12.43;6.93;;;;;;;;;;5094537;28;20065;-66
2023/08/19 03:41:29;;;;;;;12.40;6.95;;;;;;;;;;5094623;28;20422;-66
2023/08/19 03:43:54;;;;;;;19.48;7.53;;;;;;;;;;5094567;28;20022;-66
2023/08/19 03:46:20;;;;;;;14.70;7.33;;;;;;;;;;5094582;28;20047;-66
2023/08/19 03:48:45;;;;;;;17.63;7.20;;;;;;;;;;5094746;28;20245;-66
2023/08/19 03:51:10;;;;;;;11.93;6.60;;;;;;;;;;5094480;28;20012;-66
2023/08/19 03:53:35;;;;;;;11.70;6.70;;;;;;;;;;5094098;28;20376;-67
2023/08/19 03:56:00;;;;;;;13.10;6.10;;;;;;;;;;5094243;28;20245;-66
2023/08/19 03:58:27;;;;;;;12.20;6.43;;;;;;;;;;5093635;28;20519;-67
2023/08/19 04:00:52;;;;;;;9.75;5.90;;;;;;;;;;5094257;28;20244;-66
2023/08/19 04:03:17;;;;;;;8.17;5.60;;;;;;;;;;5093880;28;20027;-66
2023/08/19 04:05:43;;;;;;;12.30;5.70;;;;;;;;;;5093830;28;20073;-66
2023/08/19 04:08:08;;;;;;;10.38;6.03;;;;;;;;;;5093814;28;20244;-66
2023/08/19 04:10:33;;;;;;;16.48;7.03;;;;;;;;;;5093813;28;20461;-66
2023/08/19 04:12:58;;;;;;;13.77;6.32;;;;;;;;;;5094077;28;20012;-66
2023/08/19 04:15:23;;;;;;;10.70;6.13;;;;;;;;;;5075542;28;20028;-67
2023/08/19 04:17:49;;;;;;;11.53;7.03;;;;;;;;;;5093655;28;20020;-66
2023/08/19 04:20:14;;;;;;;19.33;6.57;;;;;;;;;;5093972;28;20016;-66
2023/08/19 04:22:40;;;;;;;15.93;6.90;;;;;;;;;;5093588;28;20256;-66
2023/08/19 04:25:06;;;;;;;12.35;7.18;;;;;;;;;;5093493;28;20465;-66
2023/08/19 04:27:31;;;;;;;22.35;6.15;;;;;;;;;;5093631;28;20008;-67
2023/08/19 04:29:56;;;;;;;14.77;6.72;;;;;;;;;;5093818;28;20023;-66
2023/08/19 04:32:22;;;;;;;15.25;7.00;;;;;;;;;;5093771;28;20074;-66
2023/08/19 04:34:47;;;;;;;13.18;6.43;;;;;;;;;;5094030;28;20020;-67
2023/08/19 04:37:13;;;;;;;12.13;7.07;;;;;;;;;;5093696;28;20099;-66
2023/08/19 04:39:38;;;;;;;12.93;7.47;;;;;;;;;;5093381;28;20416;-66
2023/08/19 04:42:03;;;;;;;15.40;7.43;;;;;;;;;;5093340;28;20024;-67
2023/08/19 04:44:29;;;;;;;10.68;6.72;;;;;;;;;;5093191;28;20059;-67
2023/08/19 04:46:54;;;;;;;21.92;7.03;;;;;;;;;;5093199;28;20053;-66
2023/08/19 04:49:20;;;;;;;15.00;6.20;;;;;;;;;;5093607;28;20017;-67
2023/08/19 04:51:45;;;;;;;16.73;6.55;;;;;;;;;;5093252;28;20327;-66
2023/08/19 04:54:11;;;;;;;12.40;6.07;;;;;;;;;;5093498;28;20067;-67
2023/08/19 04:56:36;;;;;;;10.47;6.47;;;;;;;;;;5093499;28;20043;-66
2023/08/19 04:59:02;;;;;;;13.73;7.07;;;;;;;;;;5093132;28;20263;-67
2023/08/19 05:01:28;;;;;;;12.38;6.60;;;;;;;;;;5093447;28;20038;-66
2023/08/19 05:03:53;;;;;;;13.00;6.40;;;;;;;;;;5093410;28;20024;-66
2023/08/19 05:06:19;;;;;;;10.65;6.65;;;;;;;;;;5093348;28;20095;-66
2023/08/19 05:08:44;;;;;;;11.85;6.28;;;;;;;;;;5095685;28;20385;-66
2023/08/19 05:11:09;;;;;;;10.03;6.00;;;;;;;;;;5097257;28;20044;-66
2023/08/19 05:13:34;;;;;;;12.55;6.22;;;;;;;;;;5097161;28;20245;-66
2023/08/19 05:16:00;;;;;;;10.77;6.23;;;;;;;;;;5097197;28;20095;-66
2023/08/19 05:18:25;;;;;;;13.40;6.38;;;;;;;;;;5097051;28;20015;-66
2023/08/19 05:20:50;;;;;;;10.27;7.07;;;;;;;;;;5097326;28;20038;-68
2023/08/19 05:23:16;;;;;;;11.60;7.47;;;;;;;;;;5097066;28;20020;-66
2023/08/19 05:25:41;;;;;;;16.63;7.50;;;;;;;;;;5096948;28;20028;-67
2023/08/19 05:28:10;;;;;;;14.17;6.37;;;;;;;;;;5096906;28;20258;-67
2023/08/19 05:30:35;;;;;;;13.40;6.57;;;;;;;;;;5096816;28;20241;-67
2023/08/19 05:33:12;;;;;;;11.93;5.93;;;;;;;;;;5078783;28;20027;-67
2023/08/19 05:35:38;;;;;;;19.50;5.72;;;;;;;;;;5096794;28;20718;-67
2023/08/19 05:38:04;;;;;;;15.65;6.10;;;;;;;;;;5078600;28;20020;-67
2023/08/19 05:40:30;;;;;;;18.70;6.22;;;;;;;;;;5096721;28;20016;-67
2023/08/19 05:42:55;;;;;;;9.67;5.23;;;;;;;;;;5097446;28;20076;-67
2023/08/19 05:45:20;;;;;;;13.47;5.10;;;;;;;;;;5101857;27;20071;-67
2023/08/19 05:47:45;;;;;;;10.35;5.10;;;;;;;;;;5116145;27;20442;-67
2023/08/19 05:50:11;;;;;;;15.27;6.23;;;;;;;;;;5078023;28;20020;-66
2023/08/19 05:52:36;;;;;;;11.30;5.40;;;;;;;;;;5096075;28;20016;-67
2023/08/19 05:55:04;;;;;;;8.07;5.07;;;;;;;;;;5096380;28;20020;-66
2023/08/19 05:57:29;;;;;;;20.27;5.65;;;;;;;;;;5096200;28;20016;-67
2023/08/19 05:59:55;;;;;;;14.55;5.55;;;;;;;;;;5096447;28;20069;-67
2023/08/19 06:02:20;;;;;;;22.55;6.57;;;;;;;;;;5096457;28;20068;-67
2023/08/19 06:04:47;;;;;;;13.38;5.95;;;;;;;;;;5096440;28;20465;-67
2023/08/19 06:07:12;;;;;;;15.27;5.97;;;;;;;;;;5096132;28;20024;-67
2023/08/19 06:09:37;;;;;;;8.52;5.55;;;;;;;;;;5096162;28;20020;-67
2023/08/19 06:12:03;;;;;;;12.20;5.90;;;;;;;;;;5095992;28;20020;-67
2023/08/19 06:14:28;;;;;;;12.93;6.00;;;;;;;;;;5095989;28;20032;-67
2023/08/19 06:16:53;;;;;;;16.60;5.63;;;;;;;;;;5096210;28;20076;-67
2023/08/19 06:19:18;;;;;;;15.23;6.00;;;;;;;;;;5095474;28;20259;-67
2023/08/19 06:21:44;;;;;;;13.77;5.97;;;;;;;;;;5077569;28;20248;-67
2023/08/19 06:24:09;;;;;;;12.50;6.40;;;;;;;;;;5096056;28;20016;-67
2023/08/19 06:26:34;;;;;;;13.37;7.20;;;;;;;;;;5095832;28;20020;-67
2023/08/19 06:29:00;;;;;;;18.83;7.03;;;;;;;;;;5077609;28;20035;-67
2023/08/19 06:31:25;;;;;;;15.30;6.70;;;;;;;;;;5077562;28;20020;-66
2023/08/19 06:33:51;;;;;;;13.38;6.53;;;;;;;;;;5095748;28;20706;-66
2023/08/19 06:36:22;;;;;;;22.10;7.10;;;;;;;;;;5095884;28;20114;-67
2023/08/19 06:38:49;;;;;;;16.75;7.22;;;;;;;;;;5095341;28;20020;-66
2023/08/19 06:41:16;;;;;;;29.20;8.13;;;;;;;;;;5095507;28;20118;-66
2023/08/19 06:43:42;;;;;;;18.38;8.25;;;;;;;;;;5101363;28;20074;-67
2023/08/19 06:46:07;;;;;;;28.30;8.38;;;;;;;;;;5102632;28;20032;-67
2023/08/19 06:48:33;;;;;;;23.33;7.50;;;;;;;;;;5105337;28;20016;-66
2023/08/19 06:50:59;;;;;;;16.52;6.55;;;;;;;;;;5105285;28;20598;-66
2023/08/19 06:53:25;;;;;;;14.30;7.25;;;;;;;;;;5109164;28;20024;-67
2023/08/19 06:56:09;;;;;;;17.95;7.60;;;;;;;;;;5102659;28;20034;-67
2023/08/19 06:58:40;;;;;;;19.67;7.72;;;;;;;;;;5105682;28;20045;-67
2023/08/19 07:01:10;;;;;;;18.08;7.75;;;;;;;;;;5101244;28;20051;-66
2023/08/19 07:03:36;;;;;;;17.02;7.50;;;;;;;;;;5110219;28;20027;-66
2023/08/19 07:06:02;;;;;;;16.80;7.47;;;;;;;;;;5098181;28;20024;-66
2023/08/19 07:08:30;;;;;;;27.95;9.43;;;;;;;;;;5102103;28;20016;-66
2023/08/19 07:10:55;;;;;;;23.05;7.78;;;;;;;;;;5103170;28;20024;-66
2023/08/19 07:13:20;;;;;;;20.48;7.95;;;;;;;;;;5102464;28;20088;-67
2023/08/19 07:15:48;;;;;;;17.63;8.52;;;;;;;;;;5100057;28;20135;-67
2023/08/19 07:18:16;;;;;;;17.65;7.75;;;;;;;;;;5096174;28;20130;-67
2023/08/19 07:20:42;;;;;;;18.67;7.85;;;;;;;;;;5105316;28;20069;-67
2023/08/19 07:23:08;;;;;;;19.63;8.40;;;;;;;;;;5096476;28;20508;-67
2023/08/19 07:25:34;;;;;;;26.70;8.63;;;;;;;;;;5104868;28;20035;-67
2023/08/19 07:28:01;;;;;;;14.73;7.60;;;;;;;;;;5110144;28;20467;-67
2023/08/19 07:30:27;;;;;;;14.90;7.90;;;;;;;;;;5080473;28;20042;-78
2023/08/19 07:32:52;;;;;;;15.60;8.00;;;;;;;;;;5081416;28;20499;-75
2023/08/19 07:35:18;;;;;;;22.85;10.27;;;;;;;;;;5103109;28;20011;-65
2023/08/19 07:37:43;;;;;;;24.00;10.43;;;;;;;;;;5098819;28;20028;-66
2023/08/19 07:40:09;;;;;;;27.97;10.23;;;;;;;;;;5105132;28;20058;-65
2023/08/19 07:42:35;;;;;;;27.30;9.77;;;;;;;;;;5095073;28;20020;-66
2023/08/19 07:45:00;;;;;;;19.70;9.43;;;;;;;;;;5102203;28;20558;-65
2023/08/19 07:47:25;;;;;;;25.60;10.07;;;;;;;;;;5097283;28;20024;-65
2023/08/19 07:49:51;;;;;;;22.27;8.97;;;;;;;;;;5108071;28;20020;-67
2023/08/19 07:52:16;;;;;;;13.53;8.53;;;;;;;;;;5104207;28;20256;-73
2023/08/19 07:54:41;;;;;;;23.20;8.63;;;;;;;;;;5105342;28;20065;-67
2023/08/19 07:57:06;;;;;;;16.17;8.23;;;;;;;;;;5107249;28;20310;-73
2023/08/19 07:59:32;;;;;;;17.17;7.73;;;;;;;;;;5098259;28;20028;-73
2023/08/19 08:01:57;;;;;;;14.32;7.75;;;;;;;;;;5088709;28;20282;-73
2023/08/19 08:04:22;;;;;;;16.27;8.43;;;;;;;;;;5105991;28;20024;-73
2023/08/19 08:06:48;;;;;;;18.42;8.27;;;;;;;;;;5097336;28;20366;-74
2023/08/19 08:09:13;;;;;;;23.63;8.10;;;;;;;;;;5102173;28;20024;-74
2023/08/19 08:11:39;;;;;;;14.77;7.63;;;;;;;;;;5100215;28;20435;-74
2023/08/19 08:14:05;;;;;;;19.95;8.48;;;;;;;;;;5076561;28;20020;-73
2023/08/19 08:16:30;;;;;;;21.33;8.30;;;;;;;;;;5109730;28;20036;-74
2023/08/19 08:18:55;;;;;;;16.57;7.60;;;;;;;;;;5094958;28;20024;-75
2023/08/19 08:21:20;;;;;;;13.57;8.18;;;;;;;;;;5100315;28;20085;-74
2023/08/19 08:23:47;;;;;;;18.53;8.70;;;;;;;;;;5097843;28;20069;-75
2023/08/19 08:26:13;;;;;;;21.13;8.82;;;;;;;;;;5102187;28;20373;-74
2023/08/19 08:28:38;;;;;;;15.25;8.95;;;;;;;;;;5099483;28;20408;-74
2023/08/19 08:31:04;;;;;;;19.65;9.30;;;;;;;;;;5100450;28;20077;-74
2023/08/19 08:33:29;;;;;;;20.60;7.82;;;;;;;;;;5095932;28;20074;-74
2023/08/19 08:35:54;;;;;;;22.50;7.87;;;;;;;;;;5096464;28;20106;-73
2023/08/19 08:38:19;;;;;;;23.70;7.73;;;;;;;;;;5098533;28;20073;-71
2023/08/19 08:40:45;;;;;;;20.20;7.00;;;;;;;;;;5097997;28;20016;-74
2023/08/19 08:43:10;;;;;;;13.95;6.75;;;;;;;;;;5097184;28;20030;-74
2023/08/19 08:45:35;;;;;;;16.48;6.57;;;;;;;;;;5101384;28;20040;-74
2023/08/19 08:48:01;;;;;;;17.33;7.30;;;;;;;;;;5100447;28;20087;-74
2023/08/19 08:50:26;;;;;;;14.45;6.82;;;;;;;;;;5098316;28;20027;-74
2023/08/19 08:52:52;;;;;;;13.38;6.95;;;;;;;;;;5105775;28;20023;-73
2023/08/19 08:55:17;;;;;;;17.30;7.13;;;;;;;;;;5102969;28;20376;-74
2023/08/19 08:57:43;;;;;;;20.05;7.03;;;;;;;;;;5096610;28;20039;-74
2023/08/19 09:00:11;;;;;;;12.53;7.57;;;;;;;;;;5106886;28;20028;-74
2023/08/19 09:02:37;;;;;;;14.60;7.40;;;;;;;;;;5098386;28;20489;-74
2023/08/19 09:05:05;;;;;;;20.38;7.55;;;;;;;;;;5109837;28;20020;-74
2023/08/19 09:07:31;;;;;;;12.48;7.82;;;;;;;;;;5096078;28;20466;-68
2023/08/19 09:09:58;;;;;;;21.63;6.32;;;;;;;;;;5093204;28;20027;-68
2023/08/19 09:12:24;;;;;;;11.73;6.50;;;;;;;;;;5100099;28;20024;-67
2023/08/19 09:14:53;;;;;;;19.58;7.03;;;;;;;;;;5100576;28;20439;-68
2023/08/19 09:17:19;;;;;;;13.35;6.88;;;;;;;;;;5100009;28;20350;-67
2023/08/19 09:19:44;;;;;;;13.80;6.73;;;;;;;;;;5101008;28;20058;-67
2023/08/19 09:22:19;;;;;;;15.20;6.43;;;;;;;;;;5093616;28;20023;-64
2023/08/19 09:24:44;;;;;;;11.65;7.05;;;;;;;;;;5101115;28;20016;-65
2023/08/19 09:27:10;;;;;;;14.43;7.25;;;;;;;;;;5095609;28;20082;-67
2023/08/19 09:29:35;;;;;;;15.30;6.90;;;;;;;;;;5103527;28;20106;-67
2023/08/19 09:32:02;;;;;;;15.15;6.63;;;;;;;;;;5101473;28;20059;-67
2023/08/19 09:34:27;;;;;;;15.45;6.93;;;;;;;;;;5103550;28;20019;-65
2023/08/19 09:36:56;;;;;;;11.17;6.40;;;;;;;;;;5095027;28;20412;-65
2023/08/19 09:39:24;;;;;;;12.13;6.57;;;;;;;;;;5099480;28;20272;-65
2023/08/19 09:41:49;;;;;;;14.27;6.30;;;;;;;;;;5100730;28;20393;-65
2023/08/19 09:44:14;;;;;;;11.90;6.23;;;;;;;;;;5098012;28;20023;-65
2023/08/19 09:46:41;;;;;;;14.75;6.40;;;;;;;;;;5102468;28;20858;-65
2023/08/19 09:49:07;;;;;;;14.75;6.13;;;;;;;;;;5094133;28;20034;-65
2023/08/19 09:51:32;;;;;;;15.23;6.90;;;;;;;;;;5096486;28;20377;-65
2023/08/19 09:54:07;;;;;;;12.90;6.53;;;;;;;;;;5099302;28;20306;-65
2023/08/19 09:56:32;;;;;;;12.52;6.32;;;;;;;;;;5095906;28;20020;-65
2023/08/19 09:58:57;;;;;;;12.77;6.57;;;;;;;;;;5097289;28;20020;-64
2023/08/19 10:01:25;;;;;;;9.90;6.53;;;;;;;;;;5102539;28;20323;-64
2023/08/19 10:03:50;;;;;;;12.93;6.00;;;;;;;;;;5099663;28;20024;-65
2023/08/19 10:06:16;;;;;;;15.03;7.10;;;;;;;;;;5108635;28;20017;-65
2023/08/19 10:08:44;;;;;;;8.48;6.57;;;;;;;;;;5105760;28;20370;-64
2023/08/19 10:11:09;;;;;;;13.38;6.88;;;;;;;;;;5104091;28;21000;-65
2023/08/19 10:13:35;;;;;;;14.13;6.05;;;;;;;;;;5105248;28;20065;-65
2023/08/19 10:16:03;;;;;;;15.27;6.43;;;;;;;;;;5106941;28;20015;-72
2023/08/19 10:18:32;;;;;;;15.65;6.60;;;;;;;;;;5096484;28;20417;-70
2023/08/19 10:20:59;;;;;;;10.07;5.43;;;;;;;;;;5105187;28;20020;-72
2023/08/19 10:23:24;;;;;;;12.63;6.40;;;;;;;;;;5094998;28;20054;-69
2023/08/19 10:25:49;;;;;;;14.25;7.05;;;;;;;;;;5097473;28;20129;-72
2023/08/19 10:28:28;;;;;;;10.27;6.38;;;;;;;;;;5098807;28;20533;-73
2023/08/19 10:31:09;;;;;;;11.32;6.35;;;;;;;;;;5104448;28;20642;-75
2023/08/19 10:33:44;;;;;;;10.73;6.20;;;;;;;;;;5102446;28;20019;-76
2023/08/19 10:36:16;;;;;;;10.02;5.93;;;;;;;;;;5098350;28;20040;-76
2023/08/19 10:38:46;;;;;;;9.82;6.25;;;;;;;;;;5106086;28;20051;-76
2023/08/19 10:41:20;;;;;;;11.82;6.75;;;;;;;;;;5107200;28;20386;-76
2023/08/19 10:43:54;;;;;;;12.55;6.63;;;;;;;;;;5095976;28;20034;-76
2023/08/19 10:46:23;;;;;;;12.07;6.25;;;;;;;;;;5095083;28;20048;-73
2023/08/19 10:48:49;;;;;;;17.23;7.00;;;;;;;;;;5104653;27;20031;-76
2023/08/19 10:51:16;;;;;;;11.02;6.57;;;;;;;;;;5090275;28;20476;-76
2023/08/19 10:53:47;;;;;;;12.63;7.35;;;;;;;;;;5098972;28;20027;-75
2023/08/19 10:56:13;;;;;;;17.30;6.70;;;;;;;;;;5101673;28;20081;-76
2023/08/19 10:58:39;;;;;;;13.63;6.65;;;;;;;;;;5085163;28;20502;-74
2023/08/19 11:01:05;;;;;;;14.38;7.28;;;;;;;;;;5102913;28;20020;-76
2023/08/19 11:03:31;;;;;;;11.82;6.40;;;;;;;;;;5094620;28;20508;-76
2023/08/19 11:05:56;;;;;;;16.48;6.82;;;;;;;;;;5094189;28;20020;-76
2023/08/19 11:08:22;;;;;;;15.23;7.10;;;;;;;;;;5094728;28;20441;-76
2023/08/19 11:10:47;;;;;;;14.77;6.85;;;;;;;;;;5094684;28;20095;-75
2023/08/19 11:13:13;;;;;;;17.80;7.60;;;;;;;;;;5096970;28;20030;-75
2023/08/19 11:15:40;;;;;;;13.88;7.00;;;;;;;;;;5098608;28;20103;-74
2023/08/19 11:18:05;;;;;;;12.77;7.32;;;;;;;;;;5099385;28;20116;-76
2023/08/19 11:20:30;;;;;;;14.43;7.83;;;;;;;;;;5105323;28;20027;-75
2023/08/19 11:22:55;;;;;;;18.77;7.70;;;;;;;;;;5115110;28;20261;-76
2023/08/19 11:25:21;;;;;;;18.20;8.18;;;;;;;;;;5114959;28;20279;-76
2023/08/19 11:27:46;;;;;;;10.75;6.93;;;;;;;;;;5115090;28;20015;-75
2023/08/19 11:30:12;;;;;;;14.73;7.25;;;;;;;;;;5114005;28;20008;-74
2023/08/19 11:32:37;;;;;;;17.25;7.90;;;;;;;;;;5098646;28;20070;-74
2023/08/19 11:35:03;;;;;;;17.20;7.38;;;;;;;;;;5094416;28;20366;-76
2023/08/19 11:37:31;;;;;;;16.55;7.25;;;;;;;;;;5094222;28;20049;-76
2023/08/19 11:39:57;;;;;;;14.35;6.90;;;;;;;;;;5094209;28;20019;-76
2023/08/19 11:42:25;;;;;;;12.75;7.10;;;;;;;;;;5094549;28;20039;-76
2023/08/19 11:44:51;;;;;;;18.85;7.78;;;;;;;;;;5093119;28;20040;-76
2023/08/19 11:47:16;;;;;;;17.95;8.90;;;;;;;;;;5094110;28;20024;-76
2023/08/19 11:49:42;;;;;;;18.87;7.57;;;;;;;;;;5094161;28;20409;-75
2023/08/19 11:52:07;;;;;;;17.27;7.32;;;;;;;;;;5094139;28;20245;-76
2023/08/19 11:54:33;;;;;;;14.77;7.43;;;;;;;;;;5094047;28;20077;-76
2023/08/19 11:57:00;;;;;;;13.90;7.73;;;;;;;;;;5094229;28;20043;-76
2023/08/19 11:59:29;;;;;;;15.40;7.65;;;;;;;;;;5093844;28;20024;-76
2023/08/19 12:01:55;;;;;;;13.90;7.45;;;;;;;;;;5093874;28;20047;-75
2023/08/19 12:04:22;;;;;;;12.55;7.93;;;;;;;;;;5093818;28;20042;-76
2023/08/19 12:06:47;;;;;;;14.05;7.88;;;;;;;;;;5093703;28;20032;-75
2023/08/19 12:09:12;;;;;;;14.85;8.20;;;;;;;;;;5093795;28;20021;-76
2023/08/19 12:11:38;;;;;;;10.43;7.23;;;;;;;;;;5094005;28;20027;-76
2023/08/19 12:14:04;;;;;;;14.55;7.82;;;;;;;;;;5093894;28;20301;-76
2023/08/19 12:16:29;;;;;;;12.38;7.80;;;;;;;;;;5093430;28;20381;-76
2023/08/19 12:18:54;;;;;;;14.80;7.68;;;;;;;;;;5093345;28;20054;-76
2023/08/19 12:21:19;;;;;;;14.98;8.05;;;;;;;;;;5093950;28;20035;-76
2023/08/19 12:23:45;;;;;;;12.20;8.13;;;;;;;;;;5093623;28;20055;-76
2023/08/19 12:26:10;;;;;;;15.20;7.80;;;;;;;;;;5093595;28;20272;-76
2023/08/19 12:28:35;;;;;;;18.53;8.37;;;;;;;;;;5093656;28;20020;-76
2023/08/19 12:31:00;;;;;;;17.40;8.73;;;;;;;;;;5093560;28;20016;-76
2023/08/19 12:33:25;;;;;;;16.10;7.93;;;;;;;;;;5093501;28;20241;-76
2023/08/19 12:35:51;;;;;;;14.30;8.23;;;;;;;;;;5093514;28;20030;-67
2023/08/19 12:38:18;;;;;;;17.20;8.55;;;;;;;;;;5093616;28;20260;-66
2023/08/19 12:40:44;;;;;;;16.33;9.00;;;;;;;;;;5093448;28;20023;-67
2023/08/19 12:43:13;;;;;;;17.85;8.73;;;;;;;;;;5093647;28;20024;-66
2023/08/19 12:45:38;;;;;;;17.13;9.07;;;;;;;;;;5093103;28;20075;-67
2023/08/19 12:48:05;;;;;;;13.20;8.10;;;;;;;;;;5093490;28;20068;-67
2023/08/19 12:50:30;;;;;;;13.20;8.60;;;;;;;;;;5093264;28;20062;-66
2023/08/19 12:52:56;;;;;;;13.03;9.60;;;;;;;;;;5093524;28;20381;-67
2023/08/19 12:55:25;;;;;;;18.45;9.68;;;;;;;;;;5093466;28;20277;-67
2023/08/19 12:57:54;;;;;;;16.73;8.27;;;;;;;;;;5093272;28;20040;-66
2023/08/19 13:00:20;;;;;;;19.70;9.38;;;;;;;;;;5093462;28;20059;-66
2023/08/19 13:02:45;;;;;;;16.45;9.95;;;;;;;;;;5093185;28;20047;-67
2023/08/19 13:05:13;;;;;;;18.93;10.07;;;;;;;;;;5093143;28;20070;-67
2023/08/19 13:07:39;;;;;;;15.98;9.85;;;;;;;;;;5093350;28;20024;-66
2023/08/19 13:10:04;;;;;;;17.35;10.10;;;;;;;;;;5093382;28;20497;-67
2023/08/19 13:12:30;;;;;;;22.02;10.25;;;;;;;;;;5093006;28;20017;-67
2023/08/19 13:14:56;;;;;;;13.32;9.15;;;;;;;;;;5093341;28;20385;-67
2023/08/19 13:17:22;;;;;;;17.30;9.85;;;;;;;;;;5093099;28;20366;-66
2023/08/19 13:19:48;;;;;;;15.10;9.23;;;;;;;;;;5093264;28;20461;-67
2023/08/19 13:22:13;;;;;;;18.83;10.48;;;;;;;;;;5093234;28;20053;-67
2023/08/19 13:24:38;;;;;;;13.13;9.50;;;;;;;;;;5093025;28;20028;-67
2023/08/19 13:27:04;;;;;;;15.93;9.43;;;;;;;;;;5092824;28;20024;-67
2023/08/19 13:29:29;;;;;;;15.75;9.93;;;;;;;;;;5094753;28;20027;-66
2023/08/19 13:31:54;;;;;;;18.07;9.43;;;;;;;;;;5097201;28;20024;-66
2023/08/19 13:34:19;;;;;;;20.67;9.53;;;;;;;;;;5097122;28;20030;-67
2023/08/19 13:36:45;;;;;;;17.57;9.70;;;;;;;;;;5096815;28;20028;-66
2023/08/19 13:39:10;;;;;;;16.97;9.63;;;;;;;;;;5096759;28;20028;-67
2023/08/19 13:41:35;;;;;;;19.03;10.40;;;;;;;;;;5096707;28;20020;-66
2023/08/19 13:44:00;;;;;;;24.63;10.97;;;;;;;;;;5096697;28;20590;-67
2023/08/19 13:46:25;;;;;;;24.10;10.80;;;;;;;;;;5096488;28;20036;-76
2023/08/19 13:48:51;;;;;;;18.03;10.67;;;;;;;;;;5096642;28;20035;-76
2023/08/19 13:51:18;;;;;;;15.00;10.10;;;;;;;;;;5096499;28;20031;-77
2023/08/19 13:53:43;;;;;;;17.27;9.95;;;;;;;;;;5096757;28;20016;-77
2023/08/19 13:56:08;;;;;;;20.25;10.30;;;;;;;;;;5096482;28;20020;-74
2023/08/19 13:58:35;;;;;;;22.70;10.75;;;;;;;;;;5096391;28;20012;-76
2023/08/19 14:01:00;;;;;;;19.00;10.57;;;;;;;;;;5096356;28;20131;-76
2023/08/19 14:03:26;;;;;;;21.37;10.67;;;;;;;;;;5096351;28;20024;-76
2023/08/19 14:05:52;;;;;;;24.67;11.10;;;;;;;;;;5096408;28;20373;-76
2023/08/19 14:08:17;;;;;;;19.38;10.95;;;;;;;;;;5096406;28;20019;-76
2023/08/19 14:10:42;;;;;;;14.85;10.00;;;;;;;;;;5096222;28;20453;-76
2023/08/19 14:13:08;;;;;;;20.57;10.20;;;;;;;;;;5096197;28;20012;-76
2023/08/19 14:15:33;;;;;;;17.83;11.03;;;;;;;;;;5096334;28;20489;-76
2023/08/19 14:17:58;;;;;;;18.97;11.03;;;;;;;;;;5096294;28;20031;-76
2023/08/19 14:20:23;;;;;;;21.17;11.30;;;;;;;;;;5095934;28;20024;-76
2023/08/19 14:22:48;;;;;;;22.63;10.63;;;;;;;;;;5096187;28;20024;-76